Aérodrome :
LOGIN :

S'inscrire | Disclaimer

   EN    FR    IT 

 










Légende :    VFR   VFR Marginal   IFR   IFR Intensif   IFR Très Intensif
Visi : 
Plafond : 
>= 8 km
>= 3000ft
5 à 8 km
1000 à 3000 ft
1500m à 5 km
500 à 1000 ft
800 à 1500m
200 à 500 ft
< 800m
< 200 ft
Symboles :   Orages  Brouillard  Fortes neiges  Fortes précipitations  Vent > 20 kt
SIGMETs :   Divers  Orages  Givrage  Turbulence  Onde Orograph.  Cendres Volcan.






- Altitude de l'aérodrome : 13 ft
- Code IATA : CEQ


LFMD - Cannes Mandelieu

DERNIER METAR :
  • 152130Z AUTO 01004KT 340V050 9999 BKN016 BKN040 OVC054 10/09 Q1017

METARs EXPIRÉS :
  • 152100Z AUTO 01004KT 340V050 9999 FEW018 SCT030 OVC058 10/09 Q1017
  • 152030Z AUTO 01004KT 320V050 9999 SCT056 10/09 Q1017
  • 152000Z AUTO 36003KT 310V030 9999 BKN017 BKN023 BKN044 10/09 Q1017
  • 151930Z AUTO 36003KT 320V050 9999 BKN019 OVC024 10/09 Q1017
  • 151900Z AUTO 36003KT 320V030 9999 BKN020 BKN032 10/09 Q1016 TEMPO BKN014

TAF TAF LFMD
Valide du 15 à 15h jusqu'au 16 à 15h UTC


151400Z 1515/1615 18010KT 9999 SCT020
BECMG 1516/1518 36005KT
PROB30
TEMPO 1518/1604 BKN014
BECMG 1611/1613 08010KT
ATIS : +33 4 93 48 73 23



MET'MAP, la Météo Aéronautique d'un coup d'oeil ! - Copyright ORBIFLY Décembre 2007 - Disclaimer

ORBIFLY MET'MAP TEAM :

Programmation & Développement : Alexandra Zaïnal
Sur une idée originale de : Baudouin d'Aumeries
Assistance à la programmation : Marc-Olivier Méhu
Soutien technique & logistique : Manuel Goepfert

Contact : metmap@orbifly.com




SOURCES & CREDITS :

   NOAA